sensor_id;sensor_type;location;lat;lon;timestamp;P1;durP1;ratioP1;P2;durP2;ratioP2
71838;SDS011;59687;37.520;15.068;2022-12-18T00:01:24;12.68;;;4.90;;
71838;SDS011;59687;37.520;15.068;2022-12-18T00:03:53;10.68;;;5.32;;
71838;SDS011;59687;37.520;15.068;2022-12-18T00:06:23;15.77;;;4.63;;
71838;SDS011;59687;37.520;15.068;2022-12-18T00:08:52;11.60;;;4.65;;
71838;SDS011;59687;37.520;15.068;2022-12-18T00:11:20;8.07;;;4.13;;
71838;SDS011;59687;37.520;15.068;2022-12-18T00:13:49;8.90;;;3.90;;
71838;SDS011;59687;37.520;15.068;2022-12-18T00:16:17;7.78;;;4.07;;
71838;SDS011;59687;37.520;15.068;2022-12-18T00:18:47;10.17;;;4.20;;
71838;SDS011;59687;37.520;15.068;2022-12-18T00:21:16;7.53;;;3.92;;
71838;SDS011;59687;37.520;15.068;2022-12-18T00:23:45;10.55;;;4.13;;
71838;SDS011;59687;37.520;15.068;2022-12-18T00:26:15;8.70;;;4.20;;
71838;SDS011;59687;37.520;15.068;2022-12-18T00:28:44;6.28;;;3.47;;
71838;SDS011;59687;37.520;15.068;2022-12-18T00:31:15;6.93;;;3.80;;
71838;SDS011;59687;37.520;15.068;2022-12-18T00:33:46;13.30;;;4.03;;
71838;SDS011;59687;37.520;15.068;2022-12-18T00:36:17;9.55;;;4.05;;
71838;SDS011;59687;37.520;15.068;2022-12-18T00:38:46;7.88;;;3.33;;
71838;SDS011;59687;37.520;15.068;2022-12-18T00:41:17;11.65;;;3.63;;
71838;SDS011;59687;37.520;15.068;2022-12-18T00:44:05;8.27;;;3.43;;
71838;SDS011;59687;37.520;15.068;2022-12-18T00:46:33;9.63;;;3.70;;
71838;SDS011;59687;37.520;15.068;2022-12-18T00:49:00;7.50;;;3.80;;
71838;SDS011;59687;37.520;15.068;2022-12-18T00:51:27;10.55;;;3.35;;
71838;SDS011;59687;37.520;15.068;2022-12-18T00:53:54;8.65;;;3.72;;
71838;SDS011;59687;37.520;15.068;2022-12-18T00:56:22;8.07;;;3.03;;
71838;SDS011;59687;37.520;15.068;2022-12-18T00:58:51;6.57;;;3.00;;
71838;SDS011;59687;37.520;15.068;2022-12-18T01:01:20;9.77;;;3.28;;
71838;SDS011;59687;37.520;15.068;2022-12-18T01:03:47;7.25;;;3.30;;
71838;SDS011;59687;37.520;15.068;2022-12-18T01:06:15;9.55;;;2.78;;
71838;SDS011;59687;37.520;15.068;2022-12-18T01:08:42;8.63;;;3.70;;
71838;SDS011;59687;37.520;15.068;2022-12-18T01:11:15;8.75;;;3.17;;
71838;SDS011;59687;37.520;15.068;2022-12-18T01:13:44;7.30;;;2.88;;
71838;SDS011;59687;37.520;15.068;2022-12-18T01:16:11;7.15;;;2.90;;
71838;SDS011;59687;37.520;15.068;2022-12-18T01:18:39;7.60;;;2.88;;
71838;SDS011;59687;37.520;15.068;2022-12-18T01:21:07;7.30;;;3.07;;
71838;SDS011;59687;37.520;15.068;2022-12-18T01:23:36;9.02;;;2.95;;
71838;SDS011;59687;37.520;15.068;2022-12-18T01:26:07;6.55;;;2.92;;
71838;SDS011;59687;37.520;15.068;2022-12-18T01:28:36;7.90;;;2.60;;
71838;SDS011;59687;37.520;15.068;2022-12-18T01:31:20;7.80;;;2.80;;
71838;SDS011;59687;37.520;15.068;2022-12-18T01:33:53;7.20;;;2.27;;
71838;SDS011;59687;37.520;15.068;2022-12-18T01:36:22;6.70;;;2.53;;
71838;SDS011;59687;37.520;15.068;2022-12-18T01:38:51;7.25;;;2.60;;
71838;SDS011;59687;37.520;15.068;2022-12-18T01:41:23;9.07;;;2.45;;
71838;SDS011;59687;37.520;15.068;2022-12-18T01:46:22;7.93;;;2.50;;
71838;SDS011;59687;37.520;15.068;2022-12-18T01:48:52;5.68;;;2.53;;
71838;SDS011;59687;37.520;15.068;2022-12-18T01:51:23;7.32;;;2.42;;
71838;SDS011;59687;37.520;15.068;2022-12-18T01:53:51;7.93;;;2.70;;
71838;SDS011;59687;37.520;15.068;2022-12-18T01:56:21;9.88;;;2.40;;
71838;SDS011;59687;37.520;15.068;2022-12-18T01:58:56;6.07;;;1.90;;
71838;SDS011;59687;37.520;15.068;2022-12-18T02:01:28;7.75;;;2.20;;
71838;SDS011;59687;37.520;15.068;2022-12-18T02:06:55;7.65;;;2.30;;
71838;SDS011;59687;37.520;15.068;2022-12-18T02:09:40;5.72;;;2.00;;
71838;SDS011;59687;37.520;15.068;2022-12-18T02:13:01;6.70;;;2.17;;
71838;SDS011;59687;37.520;15.068;2022-12-18T02:15:36;7.75;;;2.30;;
71838;SDS011;59687;37.520;15.068;2022-12-18T02:18:12;7.57;;;2.20;;
71838;SDS011;59687;37.520;15.068;2022-12-18T02:26:46;7.07;;;2.20;;
71838;SDS011;59687;37.520;15.068;2022-12-18T02:29:22;7.45;;;1.67;;
71838;SDS011;59687;37.520;15.068;2022-12-18T02:31:54;5.43;;;1.88;;
71838;SDS011;59687;37.520;15.068;2022-12-18T02:34:27;6.07;;;1.75;;
71838;SDS011;59687;37.520;15.068;2022-12-18T02:36:58;5.43;;;2.20;;
71838;SDS011;59687;37.520;15.068;2022-12-18T02:39:29;7.23;;;1.87;;
71838;SDS011;59687;37.520;15.068;2022-12-18T02:42:02;7.90;;;2.10;;
71838;SDS011;59687;37.520;15.068;2022-12-18T02:44:34;6.35;;;2.25;;
71838;SDS011;59687;37.520;15.068;2022-12-18T02:47:22;6.40;;;1.75;;
71838;SDS011;59687;37.520;15.068;2022-12-18T02:49:58;6.13;;;2.13;;
71838;SDS011;59687;37.520;15.068;2022-12-18T02:52:47;5.77;;;2.00;;
71838;SDS011;59687;37.520;15.068;2022-12-18T02:58:16;5.80;;;1.85;;
71838;SDS011;59687;37.520;15.068;2022-12-18T03:06:32;5.47;;;1.90;;
71838;SDS011;59687;37.520;15.068;2022-12-18T03:09:07;5.18;;;1.80;;
71838;SDS011;59687;37.520;15.068;2022-12-18T03:11:37;7.03;;;2.00;;
71838;SDS011;59687;37.520;15.068;2022-12-18T03:14:27;6.82;;;1.95;;
71838;SDS011;59687;37.520;15.068;2022-12-18T03:16:59;4.95;;;1.73;;
71838;SDS011;59687;37.520;15.068;2022-12-18T03:19:29;5.80;;;2.37;;
71838;SDS011;59687;37.520;15.068;2022-12-18T03:22:01;6.65;;;2.22;;
71838;SDS011;59687;37.520;15.068;2022-12-18T03:24:39;6.88;;;2.13;;
71838;SDS011;59687;37.520;15.068;2022-12-18T03:27:08;6.72;;;2.08;;
71838;SDS011;59687;37.520;15.068;2022-12-18T03:29:42;5.55;;;1.60;;
71838;SDS011;59687;37.520;15.068;2022-12-18T03:32:23;5.50;;;1.87;;
71838;SDS011;59687;37.520;15.068;2022-12-18T03:34:57;4.82;;;2.03;;
71838;SDS011;59687;37.520;15.068;2022-12-18T03:37:32;5.88;;;2.47;;
71838;SDS011;59687;37.520;15.068;2022-12-18T03:40:00;6.72;;;2.00;;
71838;SDS011;59687;37.520;15.068;2022-12-18T03:45:39;10.70;;;2.23;;
71838;SDS011;59687;37.520;15.068;2022-12-18T03:48:17;6.43;;;2.45;;
71838;SDS011;59687;37.520;15.068;2022-12-18T03:53:52;6.90;;;2.13;;
71838;SDS011;59687;37.520;15.068;2022-12-18T03:56:33;6.38;;;2.40;;
71838;SDS011;59687;37.520;15.068;2022-12-18T03:59:06;7.90;;;2.33;;
71838;SDS011;59687;37.520;15.068;2022-12-18T04:01:38;7.78;;;2.08;;
71838;SDS011;59687;37.520;15.068;2022-12-18T04:04:10;5.57;;;2.55;;
71838;SDS011;59687;37.520;15.068;2022-12-18T04:06:42;6.97;;;2.28;;
71838;SDS011;59687;37.520;15.068;2022-12-18T04:09:11;6.55;;;2.60;;
71838;SDS011;59687;37.520;15.068;2022-12-18T04:11:43;7.27;;;2.20;;
71838;SDS011;59687;37.520;15.068;2022-12-18T04:14:13;6.80;;;2.45;;
71838;SDS011;59687;37.520;15.068;2022-12-18T04:16:43;8.05;;;2.22;;
71838;SDS011;59687;37.520;15.068;2022-12-18T04:19:14;8.02;;;2.30;;
71838;SDS011;59687;37.520;15.068;2022-12-18T04:21:43;7.22;;;2.50;;
71838;SDS011;59687;37.520;15.068;2022-12-18T04:24:12;7.60;;;2.43;;
71838;SDS011;59687;37.520;15.068;2022-12-18T04:26:47;6.10;;;2.47;;
71838;SDS011;59687;37.520;15.068;2022-12-18T04:29:22;5.75;;;2.35;;
71838;SDS011;59687;37.520;15.068;2022-12-18T04:31:49;6.38;;;2.25;;
71838;SDS011;59687;37.520;15.068;2022-12-18T04:34:16;6.82;;;2.20;;
71838;SDS011;59687;37.520;15.068;2022-12-18T04:36:49;6.80;;;2.10;;
71838;SDS011;59687;37.520;15.068;2022-12-18T04:39:17;6.93;;;1.95;;
71838;SDS011;59687;37.520;15.068;2022-12-18T04:41:44;6.82;;;2.08;;
71838;SDS011;59687;37.520;15.068;2022-12-18T04:44:12;5.45;;;2.05;;
71838;SDS011;59687;37.520;15.068;2022-12-18T04:46:39;10.35;;;1.90;;
71838;SDS011;59687;37.520;15.068;2022-12-18T04:49:06;5.50;;;2.00;;
71838;SDS011;59687;37.520;15.068;2022-12-18T04:51:33;7.13;;;2.00;;
71838;SDS011;59687;37.520;15.068;2022-12-18T04:54:00;7.07;;;2.00;;
71838;SDS011;59687;37.520;15.068;2022-12-18T04:56:30;8.07;;;2.28;;
71838;SDS011;59687;37.520;15.068;2022-12-18T04:58:58;7.72;;;2.08;;
71838;SDS011;59687;37.520;15.068;2022-12-18T05:01:25;5.43;;;1.90;;
71838;SDS011;59687;37.520;15.068;2022-12-18T05:03:56;5.05;;;1.55;;
71838;SDS011;59687;37.520;15.068;2022-12-18T05:06:23;5.95;;;2.17;;
71838;SDS011;59687;37.520;15.068;2022-12-18T05:08:50;8.70;;;1.90;;
71838;SDS011;59687;37.520;15.068;2022-12-18T05:11:17;6.38;;;1.92;;
71838;SDS011;59687;37.520;15.068;2022-12-18T05:13:44;7.43;;;2.10;;
71838;SDS011;59687;37.520;15.068;2022-12-18T05:16:12;5.53;;;2.28;;
71838;SDS011;59687;37.520;15.068;2022-12-18T05:18:40;6.03;;;2.05;;
71838;SDS011;59687;37.520;15.068;2022-12-18T05:21:07;8.45;;;1.95;;
71838;SDS011;59687;37.520;15.068;2022-12-18T05:23:34;7.05;;;2.00;;
71838;SDS011;59687;37.520;15.068;2022-12-18T05:26:03;5.70;;;2.10;;
71838;SDS011;59687;37.520;15.068;2022-12-18T05:28:32;6.05;;;1.73;;
71838;SDS011;59687;37.520;15.068;2022-12-18T05:31:01;5.97;;;1.90;;
71838;SDS011;59687;37.520;15.068;2022-12-18T05:33:31;5.93;;;1.80;;
71838;SDS011;59687;37.520;15.068;2022-12-18T05:36:00;6.53;;;2.38;;
71838;SDS011;59687;37.520;15.068;2022-12-18T05:38:29;4.97;;;1.93;;
71838;SDS011;59687;37.520;15.068;2022-12-18T05:40:59;6.75;;;2.17;;
71838;SDS011;59687;37.520;15.068;2022-12-18T05:43:27;5.75;;;1.77;;
71838;SDS011;59687;37.520;15.068;2022-12-18T05:45:55;6.03;;;2.20;;
71838;SDS011;59687;37.520;15.068;2022-12-18T05:48:23;6.38;;;2.17;;
71838;SDS011;59687;37.520;15.068;2022-12-18T05:50:50;7.37;;;1.87;;
71838;SDS011;59687;37.520;15.068;2022-12-18T05:53:18;6.25;;;1.95;;
71838;SDS011;59687;37.520;15.068;2022-12-18T05:55:47;5.88;;;2.33;;
71838;SDS011;59687;37.520;15.068;2022-12-18T05:58:14;5.35;;;1.83;;
71838;SDS011;59687;37.520;15.068;2022-12-18T06:00:44;5.68;;;1.85;;
71838;SDS011;59687;37.520;15.068;2022-12-18T06:03:12;6.17;;;1.73;;
71838;SDS011;59687;37.520;15.068;2022-12-18T06:05:44;6.47;;;1.77;;
71838;SDS011;59687;37.520;15.068;2022-12-18T06:08:12;7.00;;;2.17;;
71838;SDS011;59687;37.520;15.068;2022-12-18T06:10:40;6.25;;;2.17;;
71838;SDS011;59687;37.520;15.068;2022-12-18T06:13:08;7.65;;;1.90;;
71838;SDS011;59687;37.520;15.068;2022-12-18T06:15:38;8.37;;;2.80;;
71838;SDS011;59687;37.520;15.068;2022-12-18T06:18:06;9.45;;;4.18;;
71838;SDS011;59687;37.520;15.068;2022-12-18T06:20:32;11.02;;;5.30;;
71838;SDS011;59687;37.520;15.068;2022-12-18T06:23:00;15.95;;;6.32;;
71838;SDS011;59687;37.520;15.068;2022-12-18T06:25:27;14.52;;;6.95;;
71838;SDS011;59687;37.520;15.068;2022-12-18T06:27:54;17.63;;;8.20;;
71838;SDS011;59687;37.520;15.068;2022-12-18T06:30:21;26.00;;;11.57;;
71838;SDS011;59687;37.520;15.068;2022-12-18T06:32:48;32.45;;;15.20;;
71838;SDS011;59687;37.520;15.068;2022-12-18T06:35:20;31.23;;;14.18;;
71838;SDS011;59687;37.520;15.068;2022-12-18T06:37:47;27.77;;;12.07;;
71838;SDS011;59687;37.520;15.068;2022-12-18T06:40:14;27.57;;;11.87;;
71838;SDS011;59687;37.520;15.068;2022-12-18T06:42:41;24.15;;;11.23;;
71838;SDS011;59687;37.520;15.068;2022-12-18T06:45:08;17.92;;;8.50;;
71838;SDS011;59687;37.520;15.068;2022-12-18T06:47:35;15.95;;;6.63;;
71838;SDS011;59687;37.520;15.068;2022-12-18T06:50:03;13.43;;;4.97;;
71838;SDS011;59687;37.520;15.068;2022-12-18T06:52:32;11.30;;;3.97;;
71838;SDS011;59687;37.520;15.068;2022-12-18T06:54:59;9.52;;;3.65;;
71838;SDS011;59687;37.520;15.068;2022-12-18T06:57:26;8.13;;;2.90;;
71838;SDS011;59687;37.520;15.068;2022-12-18T06:59:53;6.82;;;2.65;;
71838;SDS011;59687;37.520;15.068;2022-12-18T07:02:20;5.88;;;2.10;;
71838;SDS011;59687;37.520;15.068;2022-12-18T07:04:47;5.47;;;1.90;;
71838;SDS011;59687;37.520;15.068;2022-12-18T07:07:14;5.47;;;2.00;;
71838;SDS011;59687;37.520;15.068;2022-12-18T07:09:41;5.00;;;1.30;;
71838;SDS011;59687;37.520;15.068;2022-12-18T07:12:08;5.90;;;1.65;;
71838;SDS011;59687;37.520;15.068;2022-12-18T07:14:36;3.78;;;1.45;;
71838;SDS011;59687;37.520;15.068;2022-12-18T07:17:03;4.63;;;1.20;;
71838;SDS011;59687;37.520;15.068;2022-12-18T07:19:29;4.95;;;1.10;;
71838;SDS011;59687;37.520;15.068;2022-12-18T07:21:57;4.72;;;1.13;;
71838;SDS011;59687;37.520;15.068;2022-12-18T07:24:24;4.45;;;1.00;;
71838;SDS011;59687;37.520;15.068;2022-12-18T07:26:50;5.00;;;1.23;;
71838;SDS011;59687;37.520;15.068;2022-12-18T07:29:17;5.07;;;1.20;;
71838;SDS011;59687;37.520;15.068;2022-12-18T07:31:45;4.57;;;1.10;;
71838;SDS011;59687;37.520;15.068;2022-12-18T07:34:13;5.03;;;1.25;;
71838;SDS011;59687;37.520;15.068;2022-12-18T07:36:42;4.25;;;1.40;;
71838;SDS011;59687;37.520;15.068;2022-12-18T07:39:10;3.95;;;0.90;;
71838;SDS011;59687;37.520;15.068;2022-12-18T07:41:38;4.83;;;1.27;;
71838;SDS011;59687;37.520;15.068;2022-12-18T07:44:17;3.60;;;1.00;;
71838;SDS011;59687;37.520;15.068;2022-12-18T07:46:44;4.50;;;1.35;;
71838;SDS011;59687;37.520;15.068;2022-12-18T07:49:11;6.47;;;2.30;;
71838;SDS011;59687;37.520;15.068;2022-12-18T07:51:40;6.65;;;1.90;;
71838;SDS011;59687;37.520;15.068;2022-12-18T07:54:06;6.83;;;2.87;;
71838;SDS011;59687;37.520;15.068;2022-12-18T07:56:34;6.97;;;4.10;;
71838;SDS011;59687;37.520;15.068;2022-12-18T07:59:02;9.25;;;5.25;;
71838;SDS011;59687;37.520;15.068;2022-12-18T08:01:29;7.53;;;3.60;;
71838;SDS011;59687;37.520;15.068;2022-12-18T08:03:57;8.52;;;3.80;;
71838;SDS011;59687;37.520;15.068;2022-12-18T08:06:25;8.47;;;3.80;;
71838;SDS011;59687;37.520;15.068;2022-12-18T08:08:52;6.30;;;2.50;;
71838;SDS011;59687;37.520;15.068;2022-12-18T08:11:22;7.55;;;3.70;;
71838;SDS011;59687;37.520;15.068;2022-12-18T08:13:53;5.50;;;2.90;;
71838;SDS011;59687;37.520;15.068;2022-12-18T08:16:21;7.65;;;4.35;;
71838;SDS011;59687;37.520;15.068;2022-12-18T08:18:48;9.43;;;4.07;;
71838;SDS011;59687;37.520;15.068;2022-12-18T08:21:18;7.72;;;4.53;;
71838;SDS011;59687;37.520;15.068;2022-12-18T08:23:51;5.90;;;2.70;;
71838;SDS011;59687;37.520;15.068;2022-12-18T08:26:19;4.82;;;2.05;;
71838;SDS011;59687;37.520;15.068;2022-12-18T08:28:47;7.38;;;2.90;;
71838;SDS011;59687;37.520;15.068;2022-12-18T08:31:15;5.33;;;2.30;;
71838;SDS011;59687;37.520;15.068;2022-12-18T10:01:52;9.27;;;3.70;;
71838;SDS011;59687;37.520;15.068;2022-12-18T10:04:20;8.32;;;4.88;;
71838;SDS011;59687;37.520;15.068;2022-12-18T10:06:52;8.00;;;4.28;;
71838;SDS011;59687;37.520;15.068;2022-12-18T10:12:56;7.00;;;3.53;;
71838;SDS011;59687;37.520;15.068;2022-12-18T10:20:58;9.93;;;5.45;;
71838;SDS011;59687;37.520;15.068;2022-12-18T10:23:37;10.38;;;5.80;;
71838;SDS011;59687;37.520;15.068;2022-12-18T10:26:13;10.10;;;6.18;;
71838;SDS011;59687;37.520;15.068;2022-12-18T10:28:41;9.77;;;5.80;;
71838;SDS011;59687;37.520;15.068;2022-12-18T10:31:18;12.15;;;7.45;;
71838;SDS011;59687;37.520;15.068;2022-12-18T10:33:47;10.07;;;5.60;;
71838;SDS011;59687;37.520;15.068;2022-12-18T10:36:14;12.98;;;7.88;;
71838;SDS011;59687;37.520;15.068;2022-12-18T10:38:42;13.18;;;8.35;;
71838;SDS011;59687;37.520;15.068;2022-12-18T10:43:47;10.45;;;6.65;;
71838;SDS011;59687;37.520;15.068;2022-12-18T10:46:15;12.70;;;7.95;;
71838;SDS011;59687;37.520;15.068;2022-12-18T10:51:27;15.23;;;9.30;;
71838;SDS011;59687;37.520;15.068;2022-12-18T10:54:06;12.67;;;8.70;;
71838;SDS011;59687;37.520;15.068;2022-12-18T10:56:40;15.07;;;8.30;;
71838;SDS011;59687;37.520;15.068;2022-12-18T10:59:08;14.80;;;8.18;;
71838;SDS011;59687;37.520;15.068;2022-12-18T11:01:53;13.20;;;8.25;;
71838;SDS011;59687;37.520;15.068;2022-12-18T11:04:25;13.10;;;8.27;;
71838;SDS011;59687;37.520;15.068;2022-12-18T11:09:27;13.35;;;7.28;;
71838;SDS011;59687;37.520;15.068;2022-12-18T11:12:00;11.88;;;7.43;;
71838;SDS011;59687;37.520;15.068;2022-12-18T11:14:34;14.35;;;7.53;;
71838;SDS011;59687;37.520;15.068;2022-12-18T11:17:33;12.05;;;7.80;;
71838;SDS011;59687;37.520;15.068;2022-12-18T11:20:05;11.23;;;6.93;;
71838;SDS011;59687;37.520;15.068;2022-12-18T11:22:54;10.55;;;6.45;;
71838;SDS011;59687;37.520;15.068;2022-12-18T11:25:25;12.15;;;6.07;;
71838;SDS011;59687;37.520;15.068;2022-12-18T11:27:58;10.32;;;6.10;;
71838;SDS011;59687;37.520;15.068;2022-12-18T11:30:28;10.85;;;5.95;;
71838;SDS011;59687;37.520;15.068;2022-12-18T11:35:59;10.80;;;5.60;;
71838;SDS011;59687;37.520;15.068;2022-12-18T11:38:35;10.02;;;5.68;;
71838;SDS011;59687;37.520;15.068;2022-12-18T11:44:10;12.00;;;5.47;;
71838;SDS011;59687;37.520;15.068;2022-12-18T11:46:43;10.67;;;5.80;;
71838;SDS011;59687;37.520;15.068;2022-12-18T11:49:16;10.25;;;5.60;;
71838;SDS011;59687;37.520;15.068;2022-12-18T11:54:50;11.25;;;6.00;;
71838;SDS011;59687;37.520;15.068;2022-12-18T12:14:01;6.43;;;3.27;;
71838;SDS011;59687;37.520;15.068;2022-12-18T12:19:34;7.95;;;3.20;;
71838;SDS011;59687;37.520;15.068;2022-12-18T12:22:31;6.90;;;2.40;;
71838;SDS011;59687;37.520;15.068;2022-12-18T12:25:18;5.95;;;2.30;;
71838;SDS011;59687;37.520;15.068;2022-12-18T12:28:13;5.60;;;2.10;;
71838;SDS011;59687;37.520;15.068;2022-12-18T12:30:57;4.75;;;1.77;;
71838;SDS011;59687;37.520;15.068;2022-12-18T12:33:34;5.70;;;1.90;;
71838;SDS011;59687;37.520;15.068;2022-12-18T12:38:43;6.57;;;2.72;;
71838;SDS011;59687;37.520;15.068;2022-12-18T12:41:18;8.00;;;2.57;;
71838;SDS011;59687;37.520;15.068;2022-12-18T12:44:12;7.38;;;2.55;;
71838;SDS011;59687;37.520;15.068;2022-12-18T12:46:44;6.72;;;2.58;;
71838;SDS011;59687;37.520;15.068;2022-12-18T12:49:17;7.50;;;2.42;;
71838;SDS011;59687;37.520;15.068;2022-12-18T12:51:51;7.43;;;2.58;;
71838;SDS011;59687;37.520;15.068;2022-12-18T12:54:25;8.43;;;2.50;;
71838;SDS011;59687;37.520;15.068;2022-12-18T13:02:32;5.47;;;2.33;;
71838;SDS011;59687;37.520;15.068;2022-12-18T13:05:44;6.60;;;2.67;;
71838;SDS011;59687;37.520;15.068;2022-12-18T13:08:24;6.00;;;3.03;;
71838;SDS011;59687;37.520;15.068;2022-12-18T13:10:55;6.95;;;2.15;;
71838;SDS011;59687;37.520;15.068;2022-12-18T13:13:54;6.55;;;2.60;;
71838;SDS011;59687;37.520;15.068;2022-12-18T13:16:23;6.15;;;2.40;;
71838;SDS011;59687;37.520;15.068;2022-12-18T13:18:52;7.03;;;2.75;;
71838;SDS011;59687;37.520;15.068;2022-12-18T13:21:25;5.83;;;2.43;;
71838;SDS011;59687;37.520;15.068;2022-12-18T13:24:33;5.97;;;2.33;;
71838;SDS011;59687;37.520;15.068;2022-12-18T13:26:54;7.93;;;2.38;;
71838;SDS011;59687;37.520;15.068;2022-12-18T13:29:44;8.48;;;2.80;;
71838;SDS011;59687;37.520;15.068;2022-12-18T13:32:23;7.03;;;2.50;;
71838;SDS011;59687;37.520;15.068;2022-12-18T13:37:51;6.03;;;2.38;;
71838;SDS011;59687;37.520;15.068;2022-12-18T13:46:28;7.03;;;2.38;;
71838;SDS011;59687;37.520;15.068;2022-12-18T13:51:26;7.65;;;2.47;;
71838;SDS011;59687;37.520;15.068;2022-12-18T13:54:00;5.90;;;2.67;;
71838;SDS011;59687;37.520;15.068;2022-12-18T13:56:30;7.55;;;2.60;;
71838;SDS011;59687;37.520;15.068;2022-12-18T13:59:03;7.90;;;4.20;;
71838;SDS011;59687;37.520;15.068;2022-12-18T14:01:32;5.67;;;2.53;;
71838;SDS011;59687;37.520;15.068;2022-12-18T14:04:16;6.75;;;2.25;;
71838;SDS011;59687;37.520;15.068;2022-12-18T14:06:50;6.40;;;2.33;;
71838;SDS011;59687;37.520;15.068;2022-12-18T14:09:26;6.65;;;2.28;;
71838;SDS011;59687;37.520;15.068;2022-12-18T14:11:56;8.02;;;2.40;;
71838;SDS011;59687;37.520;15.068;2022-12-18T14:14:45;5.30;;;2.70;;
71838;SDS011;59687;37.520;15.068;2022-12-18T14:17:15;5.53;;;2.20;;
71838;SDS011;59687;37.520;15.068;2022-12-18T14:19:46;5.82;;;1.88;;
71838;SDS011;59687;37.520;15.068;2022-12-18T14:22:20;5.53;;;2.20;;
71838;SDS011;59687;37.520;15.068;2022-12-18T14:28:31;5.97;;;2.30;;
71838;SDS011;59687;37.520;15.068;2022-12-18T14:30:40;4.88;;;2.00;;
71838;SDS011;59687;37.520;15.068;2022-12-18T14:35:58;5.97;;;2.00;;
71838;SDS011;59687;37.520;15.068;2022-12-18T14:43:34;5.88;;;1.95;;
71838;SDS011;59687;37.520;15.068;2022-12-18T14:46:05;6.68;;;2.22;;
71838;SDS011;59687;37.520;15.068;2022-12-18T14:48:53;6.00;;;1.83;;
71838;SDS011;59687;37.520;15.068;2022-12-18T14:51:26;5.25;;;1.60;;
71838;SDS011;59687;37.520;15.068;2022-12-18T14:54:01;7.97;;;2.00;;
71838;SDS011;59687;37.520;15.068;2022-12-18T14:56:35;5.85;;;2.10;;
71838;SDS011;59687;37.520;15.068;2022-12-18T14:59:13;6.72;;;1.77;;
71838;SDS011;59687;37.520;15.068;2022-12-18T15:04:47;7.45;;;1.85;;
71838;SDS011;59687;37.520;15.068;2022-12-18T15:07:26;5.63;;;2.00;;
71838;SDS011;59687;37.520;15.068;2022-12-18T15:18:00;8.00;;;1.70;;
71838;SDS011;59687;37.520;15.068;2022-12-18T15:20:31;8.20;;;1.80;;
71838;SDS011;59687;37.520;15.068;2022-12-18T15:23:12;6.43;;;1.80;;
71838;SDS011;59687;37.520;15.068;2022-12-18T15:26:02;9.05;;;2.47;;
71838;SDS011;59687;37.520;15.068;2022-12-18T15:33:41;5.63;;;1.80;;
71838;SDS011;59687;37.520;15.068;2022-12-18T15:36:27;6.55;;;2.67;;
71838;SDS011;59687;37.520;15.068;2022-12-18T15:38:56;6.80;;;2.45;;
71838;SDS011;59687;37.520;15.068;2022-12-18T15:41:24;5.75;;;1.95;;
71838;SDS011;59687;37.520;15.068;2022-12-18T15:43:52;8.43;;;2.47;;
71838;SDS011;59687;37.520;15.068;2022-12-18T15:46:23;8.30;;;2.40;;
71838;SDS011;59687;37.520;15.068;2022-12-18T15:48:51;6.40;;;2.65;;
71838;SDS011;59687;37.520;15.068;2022-12-18T15:53:59;7.50;;;2.50;;
71838;SDS011;59687;37.520;15.068;2022-12-18T15:56:30;6.53;;;2.55;;
71838;SDS011;59687;37.520;15.068;2022-12-18T15:59:17;8.97;;;2.90;;
71838;SDS011;59687;37.520;15.068;2022-12-18T16:01:49;7.68;;;2.70;;
71838;SDS011;59687;37.520;15.068;2022-12-18T16:04:20;7.20;;;2.55;;
71838;SDS011;59687;37.520;15.068;2022-12-18T16:06:49;6.72;;;3.00;;
71838;SDS011;59687;37.520;15.068;2022-12-18T16:09:38;11.18;;;2.80;;
71838;SDS011;59687;37.520;15.068;2022-12-18T16:12:08;9.97;;;3.00;;
71838;SDS011;59687;37.520;15.068;2022-12-18T16:14:43;10.13;;;3.10;;
71838;SDS011;59687;37.520;15.068;2022-12-18T16:17:11;9.40;;;2.85;;
71838;SDS011;59687;37.520;15.068;2022-12-18T16:19:39;10.85;;;3.05;;
71838;SDS011;59687;37.520;15.068;2022-12-18T16:22:17;7.85;;;2.92;;
71838;SDS011;59687;37.520;15.068;2022-12-18T16:24:47;8.53;;;3.10;;
71838;SDS011;59687;37.520;15.068;2022-12-18T16:27:19;5.53;;;2.40;;
71838;SDS011;59687;37.520;15.068;2022-12-18T16:29:48;6.80;;;2.80;;
71838;SDS011;59687;37.520;15.068;2022-12-18T16:32:18;9.15;;;2.72;;
71838;SDS011;59687;37.520;15.068;2022-12-18T16:34:46;7.88;;;3.00;;
71838;SDS011;59687;37.520;15.068;2022-12-18T16:37:14;8.67;;;3.40;;
71838;SDS011;59687;37.520;15.068;2022-12-18T16:39:42;11.27;;;3.95;;
71838;SDS011;59687;37.520;15.068;2022-12-18T16:42:13;7.35;;;2.92;;
71838;SDS011;59687;37.520;15.068;2022-12-18T16:44:46;10.20;;;2.72;;
71838;SDS011;59687;37.520;15.068;2022-12-18T16:47:15;7.15;;;2.50;;
71838;SDS011;59687;37.520;15.068;2022-12-18T16:49:44;5.57;;;2.43;;
71838;SDS011;59687;37.520;15.068;2022-12-18T16:52:11;7.43;;;2.55;;
71838;SDS011;59687;37.520;15.068;2022-12-18T16:54:39;6.75;;;2.67;;
71838;SDS011;59687;37.520;15.068;2022-12-18T16:57:06;9.18;;;2.80;;
71838;SDS011;59687;37.520;15.068;2022-12-18T16:59:35;7.10;;;2.83;;
71838;SDS011;59687;37.520;15.068;2022-12-18T17:02:02;10.03;;;2.67;;
71838;SDS011;59687;37.520;15.068;2022-12-18T17:04:29;6.78;;;2.35;;
71838;SDS011;59687;37.520;15.068;2022-12-18T17:06:57;7.57;;;2.65;;
71838;SDS011;59687;37.520;15.068;2022-12-18T17:09:24;4.68;;;2.30;;
71838;SDS011;59687;37.520;15.068;2022-12-18T17:11:52;7.57;;;2.90;;
71838;SDS011;59687;37.520;15.068;2022-12-18T17:14:21;6.00;;;2.73;;
71838;SDS011;59687;37.520;15.068;2022-12-18T17:16:53;6.82;;;2.75;;
71838;SDS011;59687;37.520;15.068;2022-12-18T17:19:41;9.60;;;2.80;;
71838;SDS011;59687;37.520;15.068;2022-12-18T17:22:10;8.18;;;2.65;;
71838;SDS011;59687;37.520;15.068;2022-12-18T17:24:37;8.55;;;3.38;;
71838;SDS011;59687;37.520;15.068;2022-12-18T17:27:04;7.63;;;3.10;;
71838;SDS011;59687;37.520;15.068;2022-12-18T17:29:31;8.80;;;4.18;;
71838;SDS011;59687;37.520;15.068;2022-12-18T17:32:03;8.55;;;3.20;;
71838;SDS011;59687;37.520;15.068;2022-12-18T17:34:30;9.35;;;3.38;;
71838;SDS011;59687;37.520;15.068;2022-12-18T17:36:58;7.38;;;3.60;;
71838;SDS011;59687;37.520;15.068;2022-12-18T17:39:25;14.13;;;4.23;;
71838;SDS011;59687;37.520;15.068;2022-12-18T17:41:54;7.10;;;3.38;;
71838;SDS011;59687;37.520;15.068;2022-12-18T17:44:22;12.07;;;4.00;;
71838;SDS011;59687;37.520;15.068;2022-12-18T17:46:51;10.38;;;3.55;;
71838;SDS011;59687;37.520;15.068;2022-12-18T17:49:19;8.95;;;4.60;;
71838;SDS011;59687;37.520;15.068;2022-12-18T17:51:47;7.20;;;3.73;;
71838;SDS011;59687;37.520;15.068;2022-12-18T17:54:14;8.68;;;3.80;;
71838;SDS011;59687;37.520;15.068;2022-12-18T17:56:41;11.15;;;3.83;;
71838;SDS011;59687;37.520;15.068;2022-12-18T17:59:09;13.52;;;5.00;;
71838;SDS011;59687;37.520;15.068;2022-12-18T18:01:37;9.10;;;3.70;;
71838;SDS011;59687;37.520;15.068;2022-12-18T18:04:09;10.97;;;3.77;;
71838;SDS011;59687;37.520;15.068;2022-12-18T18:06:36;17.58;;;4.85;;
71838;SDS011;59687;37.520;15.068;2022-12-18T18:09:03;10.10;;;4.15;;
71838;SDS011;59687;37.520;15.068;2022-12-18T18:11:32;10.20;;;4.32;;
71838;SDS011;59687;37.520;15.068;2022-12-18T18:14:18;10.85;;;4.15;;
71838;SDS011;59687;37.520;15.068;2022-12-18T18:16:48;12.17;;;4.37;;
71838;SDS011;59687;37.520;15.068;2022-12-18T18:19:18;12.35;;;4.97;;
71838;SDS011;59687;37.520;15.068;2022-12-18T18:21:50;14.63;;;5.70;;
71838;SDS011;59687;37.520;15.068;2022-12-18T18:24:18;9.63;;;3.88;;
71838;SDS011;59687;37.520;15.068;2022-12-18T18:26:48;10.40;;;4.45;;